Time;durP1;ratioP1;P1;durP2;ratioP2;P2;SDS_P1;SDS_P2;PMS_P1;PMS_P2;Temp;Humidity;BMP_temperature;BMP_pressure;BME280_temperature;BME280_humidity;BME280_pressure;Samples;Min_cycle;Max_cycle;Signal;HPM_P1;HPM_P2
2022/01/29 00:00:49;;;;;;;32.13;14.60;;;;;;;9.91;59.85;102867.19;4989594;28;125023;-76
2022/01/29 00:03:17;;;;;;;38.13;15.68;;;;;;;9.92;59.54;102868.94;4990117;28;114311;-76
2022/01/29 00:05:44;;;;;;;35.92;14.98;;;;;;;9.92;59.43;102868.94;4989521;28;114316;-76
2022/01/29 00:08:11;;;;;;;32.75;15.23;;;;;;;9.95;59.84;102868.03;4989276;28;123020;-75
2022/01/29 00:10:39;;;;;;;38.03;15.52;;;;;;;9.97;59.72;102860.09;4987580;28;123249;-75
2022/01/29 00:13:07;;;;;;;32.40;14.75;;;;;;;9.98;59.61;102867.13;4988391;28;113816;-77
2022/01/29 00:15:34;;;;;;;36.47;15.55;;;;;;;9.99;59.74;102858.31;4989090;28;113690;-76
2022/01/29 00:18:01;;;;;;;38.40;16.27;;;;;;;9.99;59.69;102858.31;4989619;28;123941;-76
2022/01/29 00:20:28;;;;;;;37.42;15.70;;;;;;;10.00;59.81;102845.06;4988305;28;124676;-76
2022/01/29 00:22:55;;;;;;;38.67;15.38;;;;;;;10.03;59.89;102849.44;4988148;28;115614;-77
2022/01/29 00:25:22;;;;;;;33.00;14.85;;;;;;;10.03;60.00;102844.13;4988543;28;115002;-75
2022/01/29 00:27:49;;;;;;;37.05;15.35;;;;;;;10.05;59.53;102842.34;4971669;28;124069;-77
2022/01/29 00:30:18;;;;;;;37.30;15.90;;;;;;;10.05;59.62;102837.06;4988120;28;123272;-76
2022/01/29 00:32:45;;;;;;;37.92;16.00;;;;;;;10.06;59.70;102833.53;4988543;28;113104;-76
2022/01/29 00:35:12;;;;;;;36.72;16.27;;;;;;;10.07;59.68;102822.03;4990099;28;112704;-76
2022/01/29 00:37:39;;;;;;;37.97;16.20;;;;;;;10.07;59.71;102814.09;4988245;28;123565;-76
2022/01/29 00:40:07;;;;;;;36.17;15.00;;;;;;;10.10;60.01;102817.56;4972057;28;121753;-77
2022/01/29 00:42:34;;;;;;;37.08;16.23;;;;;;;10.11;60.16;102805.19;4989813;28;114574;-77
2022/01/29 00:45:02;;;;;;;39.58;15.95;;;;;;;10.12;60.01;102806.97;4989888;28;113930;-76
2022/01/29 00:47:29;;;;;;;39.72;16.42;;;;;;;10.11;59.82;102805.19;4987745;28;122270;-76
2022/01/29 00:49:56;;;;;;;40.58;16.60;;;;;;;10.11;59.37;102797.25;4989065;28;123712;-76
2022/01/29 00:52:23;;;;;;;38.67;15.40;;;;;;;10.10;59.64;102799.03;4988202;28;113189;-76
2022/01/29 00:54:51;;;;;;;36.13;16.45;;;;;;;10.11;59.85;102797.25;4987596;28;113504;-77
2022/01/29 00:57:18;;;;;;;37.83;16.38;;;;;;;10.10;60.07;102787.59;4989217;28;122803;-77
2022/01/29 00:59:45;;;;;;;34.83;16.13;;;;;;;10.10;59.88;102780.50;4987897;28;124223;-74
2022/01/29 01:02:13;;;;;;;35.75;15.55;;;;;;;10.10;60.00;102771.69;4990018;28;113148;-77
2022/01/29 01:04:40;;;;;;;42.13;16.55;;;;;;;10.10;60.22;102766.41;4993367;28;113763;-76
2022/01/29 01:07:09;;;;;;;42.97;16.88;;;;;;;10.08;60.23;102752.31;4990560;28;123999;-77
2022/01/29 01:09:36;;;;;;;40.50;16.10;;;;;;;10.07;60.21;102745.25;4991034;28;123855;-76
2022/01/29 01:12:05;;;;;;;32.67;15.68;;;;;;;10.08;60.24;102747.00;5006800;28;114740;-76
2022/01/29 01:14:35;;;;;;;34.72;15.18;;;;;;;10.08;60.05;102736.44;4990710;28;114291;-77
2022/01/29 01:17:03;;;;;;;38.60;16.35;;;;;;;10.07;60.22;102734.66;4991938;28;123583;-76
2022/01/29 01:19:31;;;;;;;36.83;16.55;;;;;;;10.06;60.14;102717.03;4991854;28;123720;-76
2022/01/29 01:21:58;;;;;;;39.75;16.30;;;;;;;10.05;60.26;102721.44;4990583;28;113237;-76
2022/01/29 01:24:26;;;;;;;44.17;17.50;;;;;;;10.06;60.10;102722.34;4990664;28;113553;-77
2022/01/29 01:26:53;;;;;;;37.97;15.50;;;;;;;10.06;60.10;102722.34;5006682;28;123372;-77
2022/01/29 01:29:20;;;;;;;40.45;15.55;;;;;;;10.04;60.48;102709.13;4990562;28;123485;-76
2022/01/29 01:31:47;;;;;;;36.42;15.90;;;;;;;10.05;60.32;102715.28;4990769;28;114872;-77
2022/01/29 01:34:18;;;;;;;39.70;16.60;;;;;;;10.06;60.64;102717.03;4992195;28;114680;-76
2022/01/29 01:36:51;;;;;;;44.55;17.80;;;;;;;10.05;60.61;102707.34;5006697;28;125047;-77
2022/01/29 01:39:22;;;;;;;35.67;16.08;;;;;;;10.07;60.53;102702.88;4991337;28;123652;-76
2022/01/29 01:41:57;;;;;;;39.78;16.17;;;;;;;10.06;60.51;102706.44;4988973;28;115213;-77
2022/01/29 01:44:25;;;;;;;43.17;16.88;;;;;;;10.06;60.67;102703.81;4990992;28;113063;-77
2022/01/29 01:46:52;;;;;;;41.33;16.88;;;;;;;10.05;60.88;102704.69;4992935;28;123679;-77
2022/01/29 01:49:19;;;;;;;38.38;16.05;;;;;;;10.05;60.61;102694.09;4991432;28;123233;-77
2022/01/29 01:51:46;;;;;;;38.95;16.17;;;;;;;10.04;60.63;102701.16;4991785;28;113054;-76
2022/01/29 01:54:13;;;;;;;40.70;16.00;;;;;;;10.05;60.64;102704.69;4991281;28;113558;-77
2022/01/29 01:56:40;;;;;;;40.47;16.92;;;;;;;10.06;60.79;102695.88;4990446;28;123491;-77
2022/01/29 01:59:08;;;;;;;36.13;15.38;;;;;;;10.04;60.74;102689.69;4990782;28;122751;-77
2022/01/29 02:01:35;;;;;;;36.45;16.25;;;;;;;10.05;60.88;102702.03;4989832;28;114194;-77
2022/01/29 02:04:02;;;;;;;37.38;15.93;;;;;;;10.04;60.93;102687.94;4991917;28;114840;-77
2022/01/29 02:06:30;;;;;;;37.53;16.55;;;;;;;10.06;61.22;102678.19;4989364;28;123074;-77
2022/01/29 02:08:59;;;;;;;35.28;15.55;;;;;;;10.07;60.83;102676.41;4990045;28;123280;-77
2022/01/29 02:11:28;;;;;;;34.85;16.15;;;;;;;10.10;61.04;102665.78;4990014;28;113707;-76
2022/01/29 02:13:57;;;;;;;36.30;16.08;;;;;;;10.10;61.20;102671.09;4992650;28;113985;-76
2022/01/29 02:16:27;;;;;;;32.83;15.48;;;;;;;10.11;60.93;102667.53;5007766;28;124413;-77
2022/01/29 02:18:55;;;;;;;36.38;15.68;;;;;;;10.10;61.01;102660.50;4989231;28;124403;-77
2022/01/29 02:21:27;;;;;;;34.95;15.68;;;;;;;10.09;60.87;102654.31;5006574;28;114501;-77
2022/01/29 02:23:54;;;;;;;34.38;16.15;;;;;;;10.09;61.03;102653.44;4989429;28;113741;-77
2022/01/29 02:26:22;;;;;;;31.63;15.20;;;;;;;10.08;60.93;102654.34;4989540;28;124213;-77
2022/01/29 02:28:49;;;;;;;34.17;14.57;;;;;;;10.10;61.12;102655.22;4991870;28;122871;-77
2022/01/29 02:31:16;;;;;;;34.92;15.13;;;;;;;10.10;61.33;102652.56;4991519;28;114212;-77
2022/01/29 02:33:44;;;;;;;36.63;15.20;;;;;;;10.10;61.41;102655.22;4989759;28;112161;-76
2022/01/29 02:36:11;;;;;;;31.23;13.80;;;;;;;10.10;61.27;102642.84;4990703;28;123903;-76
2022/01/29 02:38:39;;;;;;;29.25;13.65;;;;;;;10.12;61.31;102637.53;4989195;28;122979;-77
2022/01/29 02:41:06;;;;;;;32.47;14.57;;;;;;;10.13;61.28;102640.16;4988378;28;119578;-77
2022/01/29 02:43:47;;;;;;;35.25;14.65;;;;;;;10.14;61.18;102641.03;4987830;28;118017;-77
2022/01/29 02:48:50;;;;;;;26.73;13.20;;;;;;;10.14;61.25;102630.44;4986955;28;123595;-76
2022/01/29 02:51:19;;;;;;;30.15;13.52;;;;;;;10.12;61.11;102619.00;4986715;28;120774;-76
2022/01/29 02:53:46;;;;;;;26.08;12.70;;;;;;;10.12;61.19;102621.63;4970773;28;119036;-77
2022/01/29 02:56:14;;;;;;;28.30;13.07;;;;;;;10.11;61.18;102619.88;4988655;28;122968;-76
2022/01/29 02:58:41;;;;;;;25.00;12.20;;;;;;;10.11;61.40;102614.56;4991183;28;124029;-77
2022/01/29 03:01:09;;;;;;;27.17;12.93;;;;;;;10.12;61.56;102611.06;5006634;28;119202;-76
2022/01/29 03:03:36;;;;;;;24.75;12.38;;;;;;;10.11;61.61;102609.28;4996600;28;117127;-77
2022/01/29 03:06:08;;;;;;;27.00;13.32;;;;;;;10.12;61.72;102613.69;4999425;28;123275;-77
2022/01/29 03:08:36;;;;;;;28.77;12.68;;;;;;;10.10;61.85;102611.06;5000376;28;123468;-77
2022/01/29 03:11:05;;;;;;;25.90;12.27;;;;;;;10.12;61.87;102608.41;5000938;28;118429;-75
2022/01/29 03:13:32;;;;;;;25.88;12.02;;;;;;;10.12;61.88;102605.75;4987152;28;118191;-77
2022/01/29 03:15:59;;;;;;;24.52;12.27;;;;;;;10.13;61.53;102602.19;4985782;28;122471;-77
2022/01/29 03:18:26;;;;;;;23.90;12.40;;;;;;;10.12;61.86;102600.47;5004100;28;123551;-76
2022/01/29 03:20:54;;;;;;;27.02;12.75;;;;;;;10.10;62.02;102589.88;5004566;28;119081;-77
2022/01/29 03:23:21;;;;;;;23.85;11.80;;;;;;;10.11;62.02;102582.81;5002736;28;116816;-76
2022/01/29 03:25:51;;;;;;;24.83;11.82;;;;;;;10.11;62.11;102582.81;5020403;28;123357;-76
2022/01/29 03:28:21;;;;;;;22.05;11.73;;;;;;;10.12;61.93;102573.97;5020827;28;123398;-76
2022/01/29 03:30:48;;;;;;;23.67;11.38;;;;;;;10.13;61.86;102573.06;5022729;28;117774;-75
2022/01/29 03:33:15;;;;;;;24.45;11.68;;;;;;;10.14;61.78;102569.53;5007736;28;119569;-77
2022/01/29 03:35:42;;;;;;;24.55;11.90;;;;;;;10.15;62.05;102568.63;5019735;28;123958;-77
2022/01/29 03:38:09;;;;;;;24.13;11.68;;;;;;;10.15;62.00;102558.03;5004746;28;122981;-77
2022/01/29 03:40:36;;;;;;;23.77;11.02;;;;;;;10.17;62.28;102561.56;5005971;28;121141;-77
2022/01/29 03:43:10;;;;;;;24.08;11.90;;;;;;;10.19;62.05;102553.56;5023645;28;119876;-76
2022/01/29 03:45:38;;;;;;;24.27;11.45;;;;;;;10.20;62.16;102550.91;5005851;28;126299;-76
2022/01/29 03:48:06;;;;;;;24.17;12.27;;;;;;;10.20;62.18;102556.19;5008777;28;122007;-76
2022/01/29 03:50:34;;;;;;;23.08;11.50;;;;;;;10.21;62.23;102552.66;5024147;28;119682;-76
2022/01/29 03:53:01;;;;;;;26.00;11.50;;;;;;;10.23;62.33;102556.16;4991798;28;118378;-76
2022/01/29 03:55:28;;;;;;;24.05;11.07;;;;;;;10.24;61.95;102559.66;5004202;28;124572;-77
2022/01/29 03:57:55;;;;;;;23.02;11.13;;;;;;;10.25;62.30;102548.19;5003352;28;124764;-77
2022/01/29 04:00:22;;;;;;;25.83;11.75;;;;;;;10.25;62.40;102549.06;5020478;28;118979;-76
2022/01/29 04:02:49;;;;;;;27.10;12.25;;;;;;;10.27;62.26;102549.03;5003036;28;117138;-77
2022/01/29 04:05:16;;;;;;;23.98;11.43;;;;;;;10.28;62.53;102551.66;5017959;28;123034;-77
2022/01/29 04:07:43;;;;;;;25.08;12.63;;;;;;;10.29;62.54;102542.81;4985627;28;121899;-77
2022/01/29 04:10:12;;;;;;;28.27;12.63;;;;;;;10.31;62.34;102537.53;5017828;28;119697;-78
2022/01/29 04:12:45;;;;;;;27.70;12.55;;;;;;;10.32;62.35;102544.56;4994582;28;118497;-78
2022/01/29 04:15:13;;;;;;;27.85;12.07;;;;;;;10.33;62.42;102536.59;5003719;28;97548;-78
2022/01/29 04:17:40;;;;;;;26.00;12.18;;;;;;;10.34;62.41;102542.78;4986088;28;122057;-77
2022/01/29 04:20:08;;;;;;;30.63;13.07;;;;;;;10.36;62.54;102534.78;4985189;28;119064;-77
2022/01/29 04:22:35;;;;;;;31.42;13.68;;;;;;;10.37;62.27;102541.84;4986461;28;118295;-77
2022/01/29 04:25:02;;;;;;;32.75;13.60;;;;;;;10.38;62.28;102532.97;4988127;28;125028;-78
2022/01/29 04:27:38;;;;;;;25.85;12.82;;;;;;;10.40;62.52;102525.91;4987126;28;123784;-78
2022/01/29 04:30:14;;;;;;;26.65;13.00;;;;;;;10.39;62.36;102526.78;4985637;28;120478;-78
2022/01/29 04:35:14;;;;;;;29.80;12.60;;;;;;;10.42;62.79;102530.28;4988121;28;124191;-77
2022/01/29 04:37:41;;;;;;;29.77;12.40;;;;;;;10.44;62.67;102532.91;5017936;28;123799;-78
2022/01/29 04:40:09;;;;;;;25.42;12.10;;;;;;;10.43;62.89;102532.00;5004274;28;119009;-77
2022/01/29 04:42:37;;;;;;;27.95;12.98;;;;;;;10.44;62.91;102527.59;4997222;28;117348;-77
2022/01/29 04:45:04;;;;;;;29.65;12.73;;;;;;;10.46;62.55;102515.19;5011134;28;121900;-78
2022/01/29 04:47:31;;;;;;;29.00;12.43;;;;;;;10.47;62.52;102509.00;4994293;28;122276;-78
2022/01/29 04:50:01;;;;;;;26.08;12.20;;;;;;;10.49;62.46;102509.81;4991835;28;120118;-77
2022/01/29 04:52:28;;;;;;;30.27;12.88;;;;;;;10.49;62.73;102499.22;4993317;28;118554;-77
2022/01/29 04:54:55;;;;;;;27.55;12.50;;;;;;;10.50;62.68;102501.00;4992809;28;124243;-78
2022/01/29 04:57:22;;;;;;;24.63;11.38;;;;;;;10.51;62.72;102492.16;4991104;28;122965;-77
2022/01/29 04:59:52;;;;;;;29.20;12.82;;;;;;;10.51;62.40;102487.72;4991029;28;118177;-77
2022/01/29 05:02:19;;;;;;;26.73;12.05;;;;;;;10.53;62.72;102485.06;4991177;28;118011;-77
2022/01/29 05:04:47;;;;;;;27.55;12.48;;;;;;;10.54;62.77;102478.84;4990241;28;123703;-77
2022/01/29 05:07:14;;;;;;;29.17;12.43;;;;;;;10.55;63.11;102477.94;4990199;28;124058;-77
2022/01/29 05:09:41;;;;;;;26.42;12.50;;;;;;;10.58;62.93;102483.19;4991390;28;119073;-76
2022/01/29 05:12:08;;;;;;;26.50;12.20;;;;;;;10.59;62.79;102473.47;4991134;28;118115;-77
2022/01/29 05:14:45;;;;;;;28.38;12.02;;;;;;;10.60;62.79;102476.06;4990047;28;123393;-77
2022/01/29 05:27:59;;;;;;;;;;;;;;;10.66;62.87;102470.69;4989869;28;122106;-78
2022/01/29 05:30:26;;;;;;;24.30;11.23;;;;;;;10.68;62.55;102463.56;4989255;28;119062;-77
2022/01/29 05:32:53;;;;;;;25.80;11.98;;;;;;;10.70;62.86;102461.75;4989566;28;117466;-78
2022/01/29 05:35:20;;;;;;;31.73;12.52;;;;;;;10.72;63.08;102459.09;4988911;28;123836;-78
2022/01/29 05:37:50;;;;;;;27.67;12.63;;;;;;;10.75;62.87;102468.75;4989512;28;123720;-78
2022/01/29 05:40:18;;;;;;;29.60;13.48;;;;;;;10.76;63.26;102459.91;4990971;28;118570;-76
2022/01/29 05:42:45;;;;;;;25.25;12.98;;;;;;;10.80;63.02;102472.19;4989587;28;118986;-78
2022/01/29 05:45:13;;;;;;;29.45;12.48;;;;;;;10.81;63.28;102468.59;4989371;28;123982;-78
2022/01/29 05:47:40;;;;;;;26.00;13.05;;;;;;;10.85;63.10;102472.94;4987009;28;122368;-78
2022/01/29 05:50:07;;;;;;;28.25;13.48;;;;;;;10.86;63.06;102450.84;4987083;28;119586;-78
2022/01/29 05:52:35;;;;;;;27.00;13.50;;;;;;;10.88;62.96;102464.94;4988611;28;118510;-78
2022/01/29 05:55:04;;;;;;;28.88;14.00;;;;;;;10.89;63.17;102464.03;4989312;28;124271;-78
2022/01/29 05:57:31;;;;;;;29.38;13.32;;;;;;;10.91;63.32;102454.28;4988967;28;123862;-78
2022/01/29 05:59:58;;;;;;;31.25;13.32;;;;;;;10.93;63.17;102441.00;4988453;28;118308;-77
2022/01/29 06:02:25;;;;;;;30.02;13.02;;;;;;;10.94;62.97;102442.72;4988727;28;118715;-78
2022/01/29 06:04:53;;;;;;;32.13;13.02;;;;;;;10.94;63.29;102438.28;4989073;28;125024;-77
2022/01/29 06:07:20;;;;;;;30.63;13.50;;;;;;;10.96;63.30;102444.44;4995671;28;124827;-78
2022/01/29 06:09:48;;;;;;;30.65;13.98;;;;;;;10.97;63.01;102438.25;4998876;28;121263;-76
2022/01/29 06:12:15;;;;;;;27.65;13.55;;;;;;;10.99;63.07;102436.44;4999184;28;118646;-77
2022/01/29 06:14:42;;;;;;;29.40;13.25;;;;;;;11.00;63.18;102438.19;4998298;28;124667;-77
2022/01/29 06:17:11;;;;;;;29.30;13.93;;;;;;;11.03;63.25;102438.09;4992643;28;122118;-76
2022/01/29 06:19:38;;;;;;;30.35;14.63;;;;;;;11.03;63.11;102438.09;5006688;28;119493;-76
2022/01/29 06:22:09;;;;;;;29.95;13.75;;;;;;;11.04;63.09;102429.25;4991670;28;119543;-78
2022/01/29 06:24:37;;;;;;;33.08;14.52;;;;;;;11.05;63.39;102425.69;4993070;28;123458;-77
2022/01/29 06:27:04;;;;;;;36.55;15.88;;;;;;;11.07;63.39;102423.88;4993827;28;122473;-77
2022/01/29 06:29:31;;;;;;;31.00;14.48;;;;;;;11.09;63.31;102422.09;5010329;28;118571;-77
2022/01/29 06:31:58;;;;;;;33.65;14.32;;;;;;;11.11;63.46;102419.38;5010010;28;118946;-77
2022/01/29 06:34:25;;;;;;;33.00;14.90;;;;;;;11.10;63.36;102415.84;4973042;28;122373;-77
2022/01/29 06:36:52;;;;;;;32.85;15.10;;;;;;;11.13;63.43;102411.38;5006107;28;121735;-77
2022/01/29 06:39:19;;;;;;;30.65;14.30;;;;;;;11.15;63.43;102417.53;5006739;28;119774;-77
2022/01/29 06:41:46;;;;;;;32.80;14.73;;;;;;;11.17;63.56;102399.81;4989973;28;118391;-78
2022/01/29 06:44:13;;;;;;;34.00;14.27;;;;;;;11.18;63.53;102410.38;4991987;28;124322;-77
2022/01/29 06:46:41;;;;;;;31.02;14.85;;;;;;;11.20;63.45;102407.69;4991799;28;124410;-77
2022/01/29 06:49:08;;;;;;;35.35;14.77;;;;;;;11.21;63.48;102404.16;4990063;28;120145;-77
2022/01/29 06:51:35;;;;;;;30.65;14.95;;;;;;;11.22;63.25;102405.88;4990169;28;119392;-78
2022/01/29 06:54:02;;;;;;;31.65;14.75;;;;;;;11.23;63.48;102407.66;5006451;28;124096;-78
2022/01/29 06:56:29;;;;;;;30.20;14.90;;;;;;;11.25;63.46;102400.53;4989057;28;123898;-77
2022/01/29 06:58:56;;;;;;;30.23;14.38;;;;;;;11.26;63.37;102407.56;4989094;28;120182;-78
2022/01/29 07:01:39;;;;;;;32.40;14.30;;;;;;;11.27;63.50;102404.00;4974640;28;120236;-78
2022/01/29 07:04:06;;;;;;;30.20;14.25;;;;;;;11.30;63.56;102403.91;4972557;28;123503;-77
2022/01/29 07:06:33;;;;;;;30.42;14.52;;;;;;;11.31;63.42;102400.38;4990172;28;122990;-78
2022/01/29 07:09:00;;;;;;;29.90;14.57;;;;;;;11.34;63.71;102395.00;4988736;28;119701;-77
2022/01/29 07:11:27;;;;;;;32.38;14.45;;;;;;;11.37;63.18;102400.22;4971221;28;118009;-78
2022/01/29 07:14:02;;;;;;;31.02;16.10;;;;;;;11.39;63.40;102398.41;4989509;28;123972;-78
2022/01/29 07:16:31;;;;;;;31.75;15.15;;;;;;;11.40;63.33;102389.56;4988936;28;122021;-78
2022/01/29 07:18:58;;;;;;;30.02;14.10;;;;;;;11.40;63.48;102389.56;4972404;28;118172;-77
2022/01/29 07:21:25;;;;;;;30.17;14.88;;;;;;;11.44;63.58;102393.00;4988344;28;118582;-77
2022/01/29 07:23:52;;;;;;;29.67;14.77;;;;;;;11.45;63.31;102386.78;4986874;28;124051;-77
2022/01/29 07:26:19;;;;;;;30.60;13.93;;;;;;;11.46;63.46;102389.41;4987879;28;123197;-78
2022/01/29 07:28:47;;;;;;;27.45;14.00;;;;;;;11.48;63.47;102382.28;4971460;28;120550;-78
2022/01/29 07:31:19;;;;;;;31.88;14.52;;;;;;;11.50;63.52;102380.44;5003709;28;118120;-77
2022/01/29 07:33:47;;;;;;;32.58;13.55;;;;;;;11.52;63.41;102382.22;4988145;28;123888;-77
2022/01/29 07:36:14;;;;;;;29.63;14.25;;;;;;;11.53;63.42;102379.53;4983734;28;123777;-77
2022/01/29 07:38:41;;;;;;;30.38;14.07;;;;;;;11.55;63.44;102387.44;5003506;28;119812;-77
2022/01/29 07:41:08;;;;;;;30.95;14.90;;;;;;;11.55;63.32;102384.78;4988063;28;119025;-77
2022/01/29 07:43:35;;;;;;;31.80;14.95;;;;;;;11.56;63.44;102389.19;4988824;28;124429;-77
2022/01/29 07:46:03;;;;;;;27.00;14.25;;;;;;;11.57;63.48;102382.97;4988998;28;124150;-78
2022/01/29 07:48:30;;;;;;;29.30;14.48;;;;;;;11.59;63.42;102383.81;4988277;28;120590;-77
2022/01/29 07:50:57;;;;;;;30.75;14.80;;;;;;;11.59;63.45;102383.81;5000791;28;120466;-78
2022/01/29 07:53:24;;;;;;;29.73;13.93;;;;;;;11.60;63.49;102369.59;4987137;28;123690;-77
2022/01/29 07:55:51;;;;;;;30.35;14.40;;;;;;;11.60;63.74;102370.50;4988651;28;123899;-77
2022/01/29 07:58:18;;;;;;;27.42;14.20;;;;;;;11.62;63.35;102378.41;4970737;28;118596;-77
2022/01/29 08:00:45;;;;;;;31.20;13.88;;;;;;;11.62;63.53;102370.44;4987761;28;118948;-78
2022/01/29 08:03:13;;;;;;;26.23;13.77;;;;;;;11.63;63.47;102364.25;4987001;28;123794;-77
2022/01/29 08:05:40;;;;;;;26.92;14.52;;;;;;;11.65;63.56;102360.63;4969986;28;122981;-78
2022/01/29 08:08:15;;;;;;;25.55;14.25;;;;;;;11.67;63.76;102355.28;4986757;28;118827;-76
2022/01/29 08:10:42;;;;;;;32.00;14.18;;;;;;;11.69;63.63;102353.47;4986523;28;119544;-77
2022/01/29 08:13:09;;;;;;;28.25;14.25;;;;;;;11.71;63.78;102351.63;4987904;28;123943;-77
2022/01/29 08:15:36;;;;;;;29.25;14.77;;;;;;;11.72;63.62;102350.75;4988112;28;123932;-77
2022/01/29 08:18:05;;;;;;;26.70;13.95;;;;;;;11.74;63.54;102356.00;4986754;28;119417;-78
2022/01/29 08:20:32;;;;;;;27.35;13.57;;;;;;;11.74;63.64;102348.06;4986719;28;117678;-77
2022/01/29 08:22:59;;;;;;;29.58;13.43;;;;;;;11.75;63.58;102353.28;4988081;28;124352;-78
2022/01/29 08:25:26;;;;;;;26.55;14.10;;;;;;;11.78;63.87;102347.06;4988077;28;124596;-78
2022/01/29 08:27:53;;;;;;;28.20;14.80;;;;;;;11.80;63.86;102348.75;4969919;28;119213;-77
2022/01/29 08:30:20;;;;;;;30.70;14.25;;;;;;;11.82;63.83;102344.28;5003098;28;119062;-78
2022/01/29 08:32:47;;;;;;;28.70;13.50;;;;;;;11.85;64.04;102348.66;4987950;28;123691;-76
2022/01/29 08:35:15;;;;;;;23.98;13.75;;;;;;;11.88;64.08;102344.13;5002768;28;123838;-78
2022/01/29 08:37:44;;;;;;;27.30;13.45;;;;;;;11.92;63.81;102338.75;4985743;28;119032;-78
2022/01/29 08:40:12;;;;;;;25.88;13.75;;;;;;;11.94;64.02;102331.63;4986099;28;118873;-77
2022/01/29 08:42:40;;;;;;;27.20;14.25;;;;;;;11.96;63.85;102329.78;4987136;28;124570;-77
2022/01/29 08:45:08;;;;;;;27.73;15.00;;;;;;;11.99;63.97;102329.72;4988122;28;123491;-77
2022/01/29 08:47:39;;;;;;;27.73;14.15;;;;;;;12.00;64.07;102320.84;4986324;28;119528;-77
2022/01/29 08:50:08;;;;;;;29.33;14.43;;;;;;;12.03;64.00;102331.38;4985112;28;119097;-77
2022/01/29 08:52:37;;;;;;;26.75;14.45;;;;;;;12.06;63.75;102320.69;4986109;28;123859;-78
2022/01/29 08:55:07;;;;;;;25.10;12.95;;;;;;;12.08;64.09;102325.03;4986247;28;125082;-78
2022/01/29 08:57:34;;;;;;;28.15;13.85;;;;;;;12.11;64.05;102320.53;5003201;28;118044;-77
2022/01/29 09:00:08;;;;;;;26.75;14.70;;;;;;;12.15;64.21;102311.56;4986204;28;118402;-76
2022/01/29 09:02:35;;;;;;;26.92;13.88;;;;;;;12.17;64.16;102307.97;4985987;28;123427;-77
2022/01/29 09:05:04;;;;;;;25.23;13.88;;;;;;;12.20;64.05;102307.00;4987243;28;124050;-77
2022/01/29 09:07:31;;;;;;;25.20;14.18;;;;;;;12.23;63.81;102299.81;5004350;28;117973;-78
2022/01/29 09:09:58;;;;;;;27.55;14.35;;;;;;;12.25;64.03;102291.81;4993676;28;119098;-77
2022/01/29 09:12:25;;;;;;;24.67;14.23;;;;;;;12.27;63.99;102282.00;5010556;28;123043;-76
2022/01/29 09:14:52;;;;;;;23.38;13.02;;;;;;;12.30;64.08;102296.97;5006582;28;123240;-78
2022/01/29 09:17:19;;;;;;;23.00;13.38;;;;;;;12.32;64.10;102290.72;4985624;28;117577;-77
2022/01/29 09:19:47;;;;;;;25.75;13.57;;;;;;;12.34;64.17;102283.56;5002242;28;119105;-77
2022/01/29 09:22:14;;;;;;;25.17;13.95;;;;;;;12.38;63.98;102284.38;4987392;28;124920;-77
2022/01/29 09:24:41;;;;;;;24.15;14.00;;;;;;;12.41;63.93;102278.94;4971981;28;123376;-78
2022/01/29 09:27:08;;;;;;;25.13;13.63;;;;;;;12.44;64.14;102281.50;4988149;28;119517;-78
2022/01/29 09:29:35;;;;;;;25.48;14.18;;;;;;;12.46;64.06;102277.88;4990173;28;120064;-77
2022/01/29 09:32:03;;;;;;;24.50;12.98;;;;;;;12.47;64.01;102278.78;4989922;28;124402;-77
2022/01/29 09:34:30;;;;;;;23.40;14.00;;;;;;;12.49;64.00;102287.56;4988354;28;123741;-78
2022/01/29 09:36:57;;;;;;;24.63;13.82;;;;;;;12.51;63.90;102285.72;4971775;28;118238;-78
2022/01/29 09:39:24;;;;;;;23.83;13.50;;;;;;;12.53;64.02;102297.19;4972043;28;117329;-78
2022/01/29 09:41:53;;;;;;;23.80;13.82;;;;;;;12.56;63.93;102289.09;4989820;28;124116;-79
2022/01/29 09:44:21;;;;;;;23.40;13.38;;;;;;;12.59;64.11;102296.13;4988948;28;123947;-77
2022/01/29 09:46:51;;;;;;;24.05;13.40;;;;;;;12.60;64.04;102296.09;4989855;28;119557;-78
2022/01/29 09:49:19;;;;;;;24.67;13.57;;;;;;;12.63;64.11;102289.81;4989229;28;118695;-77
2022/01/29 09:51:46;;;;;;;21.73;12.70;;;;;;;12.64;64.03;102300.38;4988490;28;124567;-78
2022/01/29 09:54:13;;;;;;;23.75;12.73;;;;;;;12.66;64.17;102295.91;4988226;28;123006;-77
2022/01/29 09:56:40;;;;;;;22.67;12.95;;;;;;;12.71;63.92;102294.88;5004841;28;118484;-77
2022/01/29 09:59:07;;;;;;;21.85;13.05;;;;;;;12.74;64.22;102289.47;4987872;28;118033;-77
2022/01/29 10:01:35;;;;;;;23.60;12.45;;;;;;;12.77;63.94;102289.38;4987548;28;123858;-77
2022/01/29 10:04:05;;;;;;;24.85;12.38;;;;;;;12.80;64.06;102287.47;4987311;28;124869;-77
2022/01/29 10:06:33;;;;;;;21.55;12.60;;;;;;;12.83;63.81;102291.84;4987597;28;118482;-77
2022/01/29 10:09:06;;;;;;;22.45;12.38;;;;;;;12.87;63.88;102282.84;4989724;28;118569;-77
2022/01/29 10:11:33;;;;;;;20.60;12.00;;;;;;;12.89;63.89;102290.78;4987638;28;123185;-78
2022/01/29 10:14:02;;;;;;;23.30;12.10;;;;;;;12.91;63.70;102284.50;4989603;28;124447;-78
2022/01/29 10:16:32;;;;;;;19.73;11.75;;;;;;;12.93;63.90;102282.66;5004060;28;120240;-76
2022/01/29 10:19:08;;;;;;;21.55;12.70;;;;;;;12.97;64.01;102278.13;4988230;28;119637;-78
2022/01/29 10:21:37;;;;;;;18.23;11.15;;;;;;;12.99;63.82;102266.50;4986901;28;123603;-77
2022/01/29 10:24:08;;;;;;;21.27;11.63;;;;;;;13.03;63.86;102268.16;4991078;28;123662;-78
2022/01/29 10:26:40;;;;;;;20.95;11.30;;;;;;;13.05;63.77;102271.63;4973283;28;118559;-78
2022/01/29 10:29:19;;;;;;;19.83;11.15;;;;;;;13.08;63.77;102261.81;4990471;28;117433;-78
2022/01/29 10:31:49;;;;;;;20.60;11.57;;;;;;;13.11;63.78;102269.69;4989865;28;123642;-78
2022/01/29 10:34:23;;;;;;;19.60;10.75;;;;;;;13.14;63.63;102243.00;4989271;28;124649;-78
2022/01/29 10:37:16;;;;;;;20.10;10.57;;;;;;;13.16;63.67;102241.13;4989077;28;119329;-78
2022/01/29 10:40:13;;;;;;;18.23;10.90;;;;;;;13.17;63.67;102233.13;4973918;28;118027;-78
2022/01/29 10:42:40;;;;;;;18.42;10.65;;;;;;;13.20;63.62;102224.16;4991154;28;123250;-78
2022/01/29 10:45:08;;;;;;;16.75;10.45;;;;;;;13.23;63.49;102216.06;4997974;28;123283;-78
2022/01/29 10:47:56;;;;;;;16.88;10.73;;;;;;;13.25;63.40;102222.22;5000736;28;118772;-78
2022/01/29 10:50:24;;;;;;;19.20;10.10;;;;;;;13.29;63.59;102215.84;4980797;28;117330;-78
2022/01/29 10:52:52;;;;;;;18.02;10.32;;;;;;;13.35;63.64;102214.81;4989786;28;122865;-78
2022/01/29 10:55:19;;;;;;;15.75;10.07;;;;;;;13.38;63.47;102210.25;4988376;28;123609;-77
2022/01/29 10:57:48;;;;;;;16.67;10.10;;;;;;;13.41;63.35;102207.50;4989085;28;119430;-77
2022/01/29 11:00:23;;;;;;;15.63;9.85;;;;;;;13.47;63.39;102208.19;4987835;28;117668;-78
2022/01/29 11:02:53;;;;;;;;;;;;;;;13.48;63.32;102199.28;4987203;28;124372;-78
2022/01/29 11:05:27;;;;;;;14.40;9.57;;;;;;;13.53;63.25;102205.31;4986301;28;124445;-77
2022/01/29 11:07:56;;;;;;;13.70;9.18;;;;;;;13.55;63.25;102201.66;4987172;28;120307;-78
2022/01/29 11:10:25;;;;;;;14.43;9.10;;;;;;;13.57;63.39;102198.97;4987192;28;119410;-78
2022/01/29 11:12:53;;;;;;;16.20;9.88;;;;;;;13.60;63.19;102183.75;4988586;28;123919;-78
2022/01/29 11:15:22;;;;;;;14.30;9.57;;;;;;;13.63;62.92;102188.09;4988914;28;123794;-78
2022/01/29 11:17:50;;;;;;;13.77;8.90;;;;;;;13.67;63.04;102187.03;4987415;28;117290;-78
2022/01/29 11:20:18;;;;;;;14.27;8.15;;;;;;;13.69;62.90;102185.19;4987472;28;118953;-78
2022/01/29 11:22:48;;;;;;;12.65;8.18;;;;;;;13.72;62.87;102182.44;4988298;28;124196;-78